Time;durP1;ratioP1;P1;durP2;ratioP2;P2;SDS_P1;SDS_P2;PMS_P1;PMS_P2;Temp;Humidity;BMP_temperature;BMP_pressure;BME280_temperature;BME280_humidity;BME280_pressure;Samples;Min_cycle;Max_cycle;Signal;HPM_P1;HPM_P2
2024/01/28 00:01:56;;;;;;;17.83;10.18;;;3.30;99.90;;;;;;4997006;28;20328;-51
2024/01/28 00:04:22;;;;;;;16.45;9.32;;;3.40;99.90;;;;;;4996764;28;20185;-53
2024/01/28 00:06:47;;;;;;;18.23;10.13;;;3.40;99.90;;;;;;4996969;28;20180;-51
2024/01/28 00:09:13;;;;;;;18.17;11.10;;;3.40;99.90;;;;;;4996802;28;20753;-50
2024/01/28 00:11:39;;;;;;;19.88;11.10;;;3.50;99.90;;;;;;4996826;28;20235;-50
2024/01/28 00:14:05;;;;;;;16.10;10.30;;;3.40;99.90;;;;;;4996755;28;20650;-53
2024/01/28 00:16:31;;;;;;;15.40;10.48;;;3.40;99.90;;;;;;4996867;28;20392;-51
2024/01/28 00:19:00;;;;;;;19.73;9.60;;;3.30;99.90;;;;;;4996448;28;20721;-52
2024/01/28 00:21:26;;;;;;;19.00;10.75;;;3.40;99.90;;;;;;4996692;28;20180;-53
2024/01/28 00:23:52;;;;;;;15.77;10.02;;;3.30;99.90;;;;;;4996647;28;20185;-52
2024/01/28 00:26:19;;;;;;;14.38;9.77;;;3.20;99.90;;;;;;4996538;28;20192;-48
2024/01/28 00:28:45;;;;;;;17.17;9.88;;;3.10;99.90;;;;;;4996476;28;20229;-53
2024/01/28 00:31:11;;;;;;;14.55;9.63;;;3.10;99.90;;;;;;4996309;28;20185;-53
2024/01/28 00:33:36;;;;;;;16.63;9.65;;;3.00;99.90;;;;;;4996161;28;20188;-52
2024/01/28 00:36:02;;;;;;;15.23;9.43;;;2.90;99.90;;;;;;4996480;28;20272;-52
2024/01/28 00:38:31;;;;;;;17.25;10.48;;;2.80;99.90;;;;;;4996632;28;20196;-52
2024/01/28 00:41:00;;;;;;;14.98;10.15;;;2.80;99.90;;;;;;4996249;28;20689;-52
2024/01/28 00:43:27;;;;;;;14.53;9.40;;;2.90;99.90;;;;;;4996095;28;20258;-50
2024/01/28 00:45:52;;;;;;;18.15;9.82;;;2.90;99.90;;;;;;4996099;28;20180;-52
2024/01/28 00:48:18;;;;;;;19.50;10.27;;;2.90;99.90;;;;;;4996070;28;20301;-52
2024/01/28 00:50:44;;;;;;;15.95;9.52;;;2.80;99.90;;;;;;4996233;28;20185;-51
2024/01/28 00:53:10;;;;;;;15.07;9.87;;;2.80;99.90;;;;;;4996096;28;20515;-50
2024/01/28 00:55:35;;;;;;;16.63;9.93;;;2.80;99.90;;;;;;4995995;28;20261;-53
2024/01/28 00:58:02;;;;;;;15.00;9.75;;;2.80;99.90;;;;;;4995941;28;20196;-52
2024/01/28 01:00:28;;;;;;;16.15;9.85;;;2.70;99.90;;;;;;4995536;28;20193;-51
2024/01/28 01:02:54;;;;;;;16.58;10.30;;;2.70;99.90;;;;;;4995845;28;20177;-54
2024/01/28 01:05:20;;;;;;;14.75;10.75;;;2.80;99.90;;;;;;4995875;28;20184;-51
2024/01/28 01:07:45;;;;;;;15.88;10.38;;;2.80;99.90;;;;;;4995794;28;20644;-50
2024/01/28 01:10:11;;;;;;;16.35;10.88;;;2.80;99.90;;;;;;4994497;28;20211;-51
2024/01/28 01:12:37;;;;;;;16.50;9.95;;;2.80;99.90;;;;;;4995934;28;20185;-49
2024/01/28 01:15:03;;;;;;;15.80;10.88;;;2.80;99.90;;;;;;4995648;28;20228;-51
2024/01/28 01:17:29;;;;;;;14.93;9.32;;;2.90;99.90;;;;;;4995494;28;20596;-50
2024/01/28 01:19:55;;;;;;;17.13;10.43;;;2.80;99.90;;;;;;4995477;28;20554;-50
2024/01/28 01:22:20;;;;;;;16.85;10.15;;;2.80;99.90;;;;;;4995498;28;20227;-52
2024/01/28 01:24:46;;;;;;;15.40;9.50;;;2.90;99.90;;;;;;4995547;28;20174;-52
2024/01/28 01:27:11;;;;;;;16.23;9.83;;;2.90;99.90;;;;;;4995307;28;20185;-52
2024/01/28 01:29:37;;;;;;;21.25;9.95;;;2.90;99.90;;;;;;4995304;28;20546;-48
2024/01/28 01:32:03;;;;;;;15.10;10.20;;;2.90;99.90;;;;;;4995186;28;20174;-51
2024/01/28 01:34:29;;;;;;;17.10;10.17;;;2.90;99.90;;;;;;4995162;28;20180;-52
2024/01/28 01:36:55;;;;;;;16.13;9.73;;;3.00;99.90;;;;;;4995104;28;20192;-51
2024/01/28 01:39:20;;;;;;;15.90;9.23;;;3.10;99.90;;;;;;4995157;28;20211;-48
2024/01/28 01:41:46;;;;;;;16.60;9.83;;;3.00;99.90;;;;;;4994990;28;20686;-49
2024/01/28 01:44:12;;;;;;;17.63;10.30;;;3.00;99.90;;;;;;4995024;28;20589;-52
2024/01/28 01:46:40;;;;;;;17.63;9.55;;;3.00;99.90;;;;;;4994869;28;20181;-52
2024/01/28 01:49:08;;;;;;;16.97;9.57;;;3.00;99.90;;;;;;4994794;28;20248;-50
2024/01/28 01:51:34;;;;;;;12.30;9.98;;;3.00;99.90;;;;;;4994956;28;20180;-51
2024/01/28 01:54:02;;;;;;;15.38;9.95;;;2.90;99.90;;;;;;4994804;28;20195;-48
2024/01/28 01:56:31;;;;;;;17.60;10.37;;;2.80;99.90;;;;;;4994312;28;20180;-52
2024/01/28 01:58:57;;;;;;;17.63;9.33;;;2.80;99.90;;;;;;4994665;28;20185;-47
2024/01/28 02:01:26;;;;;;;16.33;9.93;;;2.80;99.90;;;;;;4994482;28;20344;-50
2024/01/28 02:03:54;;;;;;;16.97;9.70;;;2.90;99.90;;;;;;4994734;28;20177;-51
2024/01/28 02:06:20;;;;;;;18.88;10.35;;;2.90;99.90;;;;;;4994647;28;20722;-52
2024/01/28 02:08:45;;;;;;;15.90;10.00;;;3.00;99.90;;;;;;4994552;28;20307;-50
2024/01/28 02:11:11;;;;;;;15.60;10.00;;;2.90;99.90;;;;;;4994525;28;20184;-48
2024/01/28 02:13:37;;;;;;;15.85;9.57;;;2.90;99.90;;;;;;4994403;28;20181;-50
2024/01/28 02:16:04;;;;;;;16.73;9.65;;;2.90;99.90;;;;;;4994531;28;20177;-49
2024/01/28 02:18:29;;;;;;;13.17;9.10;;;2.90;99.90;;;;;;4993204;28;20524;-50
2024/01/28 02:20:55;;;;;;;15.90;9.20;;;2.90;99.90;;;;;;4994384;28;20195;-52
2024/01/28 02:23:21;;;;;;;15.68;9.55;;;2.80;99.90;;;;;;4994330;28;20267;-51
2024/01/28 02:25:47;;;;;;;14.33;9.43;;;2.90;99.90;;;;;;4994282;28;20178;-49
2024/01/28 02:28:13;;;;;;;13.68;8.88;;;2.80;99.90;;;;;;4994013;28;20303;-50
2024/01/28 02:30:39;;;;;;;16.67;9.03;;;2.70;99.90;;;;;;4994366;28;20212;-54
2024/01/28 02:33:04;;;;;;;15.07;9.03;;;2.70;99.90;;;;;;4993026;28;20189;-50
2024/01/28 02:35:30;;;;;;;14.97;9.53;;;2.80;99.90;;;;;;4994197;28;20554;-50
2024/01/28 02:37:56;;;;;;;15.10;8.60;;;2.70;99.90;;;;;;4994156;28;20220;-54
2024/01/28 02:40:21;;;;;;;13.40;8.37;;;2.70;99.90;;;;;;4994074;28;20177;-54
2024/01/28 02:42:47;;;;;;;13.13;8.43;;;2.70;99.90;;;;;;4993864;28;20212;-52
2024/01/28 02:45:13;;;;;;;9.87;7.43;;;2.60;99.90;;;;;;4994199;28;20185;-50
2024/01/28 02:47:38;;;;;;;13.33;7.83;;;2.60;99.90;;;;;;4994022;28;20636;-54
2024/01/28 02:50:04;;;;;;;12.13;8.27;;;2.50;99.90;;;;;;4993860;28;20181;-53
2024/01/28 02:52:30;;;;;;;12.00;7.57;;;2.50;99.90;;;;;;4993908;28;20594;-52
2024/01/28 02:54:56;;;;;;;12.43;7.80;;;2.50;99.90;;;;;;4993796;28;20184;-52
2024/01/28 02:57:22;;;;;;;12.27;8.10;;;2.40;99.90;;;;;;4993716;28;20189;-54
2024/01/28 02:59:47;;;;;;;15.17;8.67;;;2.20;99.90;;;;;;4993954;28;20193;-54
2024/01/28 03:02:13;;;;;;;12.93;7.87;;;2.20;99.90;;;;;;4993647;28;20278;-50
2024/01/28 03:04:39;;;;;;;15.23;8.03;;;2.20;99.90;;;;;;4993876;28;20261;-50
2024/01/28 03:07:06;;;;;;;14.63;8.73;;;2.20;99.90;;;;;;4993162;28;20189;-51
2024/01/28 03:09:31;;;;;;;13.73;8.35;;;2.20;99.90;;;;;;4993482;28;20198;-55
2024/01/28 03:11:57;;;;;;;15.88;8.98;;;2.20;99.90;;;;;;4993587;28;20177;-52
2024/01/28 03:14:23;;;;;;;13.77;8.80;;;2.10;99.90;;;;;;4993807;28;20178;-53
2024/01/28 03:16:49;;;;;;;12.93;8.40;;;2.00;99.90;;;;;;4993555;28;20196;-54
2024/01/28 03:19:15;;;;;;;12.10;8.27;;;1.90;99.90;;;;;;4993714;28;20181;-53
2024/01/28 03:21:41;;;;;;;17.80;8.27;;;2.00;99.90;;;;;;4993593;28;20211;-52
2024/01/28 03:24:06;;;;;;;13.57;8.10;;;2.10;99.90;;;;;;4993617;28;20613;-55
2024/01/28 03:26:35;;;;;;;13.50;8.27;;;2.10;99.90;;;;;;4993409;28;20181;-52
2024/01/28 03:29:02;;;;;;;12.03;7.50;;;2.10;99.90;;;;;;4993664;28;20219;-54
2024/01/28 03:31:28;;;;;;;13.37;8.63;;;2.20;99.90;;;;;;4993569;28;20585;-53
2024/01/28 03:33:54;;;;;;;14.23;8.50;;;2.20;99.90;;;;;;4993578;28;20231;-54
2024/01/28 03:36:20;;;;;;;14.73;7.97;;;2.20;99.90;;;;;;4993536;28;20224;-53
2024/01/28 03:38:45;;;;;;;12.02;7.85;;;2.30;99.90;;;;;;4993484;28;20678;-53
2024/01/28 03:41:13;;;;;;;10.97;7.10;;;2.20;99.90;;;;;;4993371;28;20177;-51
2024/01/28 03:43:39;;;;;;;14.63;8.67;;;2.20;99.90;;;;;;4993540;28;20240;-51
2024/01/28 03:46:07;;;;;;;10.63;7.10;;;2.20;99.90;;;;;;4993504;28;20326;-51
2024/01/28 03:48:33;;;;;;;14.33;8.60;;;2.30;99.90;;;;;;4993291;28;20255;-55
2024/01/28 03:50:58;;;;;;;13.93;7.80;;;2.30;99.90;;;;;;4993337;28;20271;-54
2024/01/28 03:53:24;;;;;;;13.90;7.87;;;2.30;99.90;;;;;;4993324;28;20187;-53
2024/01/28 03:55:50;;;;;;;11.67;7.13;;;2.30;99.90;;;;;;4993215;28;20178;-51
2024/01/28 03:58:15;;;;;;;14.67;7.67;;;2.30;99.90;;;;;;4993744;28;20179;-51
2024/01/28 04:00:41;;;;;;;12.30;7.60;;;2.20;99.90;;;;;;4993247;28;20244;-54
2024/01/28 04:03:07;;;;;;;10.95;7.05;;;2.20;99.90;;;;;;4993365;28;20554;-52
2024/01/28 04:05:33;;;;;;;13.67;7.83;;;2.20;99.90;;;;;;4993227;28;20648;-52
2024/01/28 04:08:00;;;;;;;14.90;7.47;;;2.30;99.90;;;;;;4993154;28;20247;-54
2024/01/28 04:10:26;;;;;;;12.63;7.60;;;2.30;99.90;;;;;;4993109;28;20219;-53
2024/01/28 04:12:52;;;;;;;14.63;8.00;;;2.40;99.90;;;;;;4993302;28;20626;-54
2024/01/28 04:15:18;;;;;;;13.43;6.90;;;2.40;99.90;;;;;;4993283;28;20249;-54
2024/01/28 04:17:44;;;;;;;10.13;6.50;;;2.30;99.90;;;;;;4993172;28;20259;-53
2024/01/28 04:20:10;;;;;;;12.70;6.97;;;2.40;99.90;;;;;;4995770;28;20268;-55
2024/01/28 04:22:35;;;;;;;13.97;7.37;;;2.30;99.90;;;;;;4996559;28;20603;-53
2024/01/28 04:25:01;;;;;;;11.73;6.93;;;2.20;99.90;;;;;;4996704;28;20178;-54
2024/01/28 04:27:27;;;;;;;13.63;7.73;;;2.30;99.90;;;;;;4996343;28;20189;-53
2024/01/28 04:29:52;;;;;;;11.47;6.30;;;2.30;99.90;;;;;;4996609;28;20181;-54
2024/01/28 04:32:18;;;;;;;12.53;6.83;;;2.30;99.90;;;;;;4996336;28;20178;-51
2024/01/28 04:34:44;;;;;;;12.23;6.50;;;2.20;99.90;;;;;;4996260;28;20238;-54
2024/01/28 04:37:10;;;;;;;18.97;7.67;;;2.30;99.90;;;;;;4996320;28;20635;-53
2024/01/28 04:39:35;;;;;;;9.57;6.30;;;2.30;99.90;;;;;;4996158;28;20332;-50
2024/01/28 04:42:02;;;;;;;16.37;6.63;;;2.30;99.90;;;;;;4996362;28;20267;-52
2024/01/28 04:44:27;;;;;;;10.93;6.30;;;2.30;99.90;;;;;;4996269;28;20261;-55
2024/01/28 04:46:55;;;;;;;12.00;6.70;;;2.30;99.90;;;;;;4996191;28;20264;-51
2024/01/28 04:49:21;;;;;;;11.63;5.60;;;2.40;99.90;;;;;;4995962;28;20217;-52
2024/01/28 04:51:47;;;;;;;9.10;5.67;;;2.30;99.90;;;;;;4994935;28;20186;-51
2024/01/28 04:54:14;;;;;;;9.80;5.47;;;2.30;99.90;;;;;;4995923;28;20181;-52
2024/01/28 04:56:40;;;;;;;10.10;6.50;;;2.20;99.90;;;;;;4994649;28;20185;-53
2024/01/28 04:59:06;;;;;;;10.80;5.77;;;2.20;99.90;;;;;;4995944;28;20196;-52
2024/01/28 05:01:33;;;;;;;10.70;6.50;;;2.30;99.90;;;;;;4995724;28;20222;-51
2024/01/28 05:04:01;;;;;;;13.20;6.03;;;2.30;99.90;;;;;;4995785;28;20542;-52
2024/01/28 05:06:36;;;;;;;11.03;5.87;;;2.30;99.90;;;;;;4995709;28;20838;-51
2024/01/28 05:09:04;;;;;;;10.50;6.67;;;2.30;99.90;;;;;;4995543;28;20227;-53
2024/01/28 05:11:33;;;;;;;10.33;5.93;;;2.30;99.90;;;;;;4995808;28;20178;-54
2024/01/28 05:13:59;;;;;;;9.32;6.25;;;2.30;99.90;;;;;;4995983;28;20177;-50
2024/01/28 05:16:25;;;;;;;9.33;5.80;;;2.30;99.90;;;;;;4995549;28;20705;-54
2024/01/28 05:18:51;;;;;;;10.37;5.97;;;2.30;99.90;;;;;;4995598;28;20219;-50
2024/01/28 05:21:18;;;;;;;10.70;5.80;;;2.30;99.90;;;;;;4995399;28;20216;-52
2024/01/28 05:23:45;;;;;;;9.13;5.17;;;2.30;99.90;;;;;;4995551;28;20337;-52
2024/01/28 05:26:11;;;;;;;8.87;5.67;;;2.30;99.90;;;;;;4995577;28;20184;-53
2024/01/28 05:28:37;;;;;;;11.98;6.38;;;2.20;99.90;;;;;;4995392;28;20590;-53
2024/01/28 05:31:03;;;;;;;10.90;5.75;;;2.20;99.90;;;;;;4994591;28;20186;-51
2024/01/28 05:33:29;;;;;;;10.20;5.93;;;2.10;99.90;;;;;;4995285;28;20209;-52
2024/01/28 05:35:56;;;;;;;9.07;5.80;;;2.10;99.90;;;;;;4995131;28;20177;-53
2024/01/28 05:38:22;;;;;;;10.38;5.40;;;2.10;99.90;;;;;;4995246;28;20189;-52
2024/01/28 05:40:47;;;;;;;10.27;5.77;;;2.10;99.90;;;;;;4995236;28;20178;-51
2024/01/28 05:43:13;;;;;;;8.33;5.30;;;2.20;99.90;;;;;;4994955;28;20181;-52
2024/01/28 05:45:38;;;;;;;10.40;5.77;;;2.20;99.90;;;;;;4995075;28;20180;-51
2024/01/28 05:48:04;;;;;;;7.93;5.40;;;2.20;99.90;;;;;;4994922;28;20214;-50
2024/01/28 05:50:30;;;;;;;9.43;5.57;;;2.20;99.90;;;;;;4994874;28;20182;-52
2024/01/28 05:52:56;;;;;;;11.67;5.27;;;2.20;99.90;;;;;;4994825;28;20601;-52
2024/01/28 05:55:21;;;;;;;8.33;5.50;;;2.20;99.90;;;;;;4994981;28;20181;-50
2024/01/28 05:57:47;;;;;;;10.13;5.40;;;2.10;99.90;;;;;;4994712;28;20227;-49
2024/01/28 06:00:14;;;;;;;11.20;5.33;;;2.20;99.90;;;;;;4994749;28;20631;-49
2024/01/28 06:02:40;;;;;;;13.10;5.40;;;2.10;99.90;;;;;;4994624;28;20199;-53
2024/01/28 06:05:06;;;;;;;8.40;5.60;;;2.10;99.90;;;;;;4994498;28;20178;-50
2024/01/28 06:07:32;;;;;;;10.13;5.13;;;2.00;99.90;;;;;;4994930;28;20662;-53
2024/01/28 06:09:57;;;;;;;11.53;5.20;;;2.00;99.90;;;;;;4994453;28;20647;-53
2024/01/28 06:12:23;;;;;;;10.23;5.57;;;2.00;99.90;;;;;;4994430;28;20215;-49
2024/01/28 06:14:49;;;;;;;11.43;6.27;;;2.10;99.90;;;;;;4994477;28;20180;-52
2024/01/28 06:17:15;;;;;;;9.97;6.33;;;2.00;99.90;;;;;;4976939;28;20191;-52
2024/01/28 06:19:40;;;;;;;8.03;6.70;;;1.90;99.90;;;;;;4994226;28;20192;-50
2024/01/28 06:22:06;;;;;;;10.60;6.47;;;1.90;99.90;;;;;;4994538;28;20182;-51
2024/01/28 06:24:33;;;;;;;6.00;5.40;;;1.80;99.90;;;;;;4994387;28;20184;-51
2024/01/28 06:26:59;;;;;;;10.00;5.77;;;1.80;99.90;;;;;;4994295;28;20666;-50
2024/01/28 06:29:24;;;;;;;8.90;4.93;;;1.90;99.90;;;;;;4994105;28;20312;-51
2024/01/28 06:31:50;;;;;;;9.50;5.20;;;2.10;99.90;;;;;;4994167;28;20677;-52
2024/01/28 06:34:16;;;;;;;10.03;4.93;;;2.10;99.90;;;;;;4993933;28;20216;-53
2024/01/28 06:36:42;;;;;;;9.63;5.43;;;2.10;99.90;;;;;;4994150;28;20208;-50
2024/01/28 06:39:08;;;;;;;9.17;4.83;;;2.10;99.90;;;;;;4994009;28;20713;-54
2024/01/28 06:41:34;;;;;;;7.63;4.87;;;2.10;99.90;;;;;;4994024;28;20698;-50
2024/01/28 06:44:02;;;;;;;10.97;5.00;;;2.00;99.90;;;;;;4993970;28;20183;-51
2024/01/28 06:46:28;;;;;;;7.90;5.20;;;2.10;99.90;;;;;;4993948;28;20181;-52
2024/01/28 06:48:54;;;;;;;8.57;4.60;;;2.00;99.90;;;;;;4993518;28;20224;-52
2024/01/28 06:51:19;;;;;;;8.70;4.47;;;2.00;99.90;;;;;;4974295;28;20185;-51
2024/01/28 06:53:45;;;;;;;6.60;4.50;;;1.90;99.90;;;;;;4974583;28;20184;-52
2024/01/28 06:56:11;;;;;;;8.03;4.57;;;2.00;99.90;;;;;;4974508;28;20182;-51
2024/01/28 06:58:37;;;;;;;8.07;4.77;;;2.00;99.90;;;;;;4974502;28;20200;-52
2024/01/28 07:01:03;;;;;;;10.60;4.83;;;2.00;99.90;;;;;;4982534;28;20658;-50
2024/01/28 07:03:29;;;;;;;10.27;4.47;;;1.90;99.90;;;;;;4984711;28;20174;-53
2024/01/28 07:05:55;;;;;;;8.03;4.70;;;2.00;99.90;;;;;;4982969;28;20233;-51
2024/01/28 07:08:20;;;;;;;11.77;6.00;;;2.00;99.90;;;;;;4984493;28;20701;-53
2024/01/28 07:10:46;;;;;;;17.40;9.60;;;1.90;99.90;;;;;;4983166;28;20701;-52
2024/01/28 07:13:12;;;;;;;18.90;10.30;;;1.90;99.90;;;;;;4980823;28;20669;-51
2024/01/28 07:15:37;;;;;;;25.93;15.30;;;1.90;99.90;;;;;;4979175;28;20184;-53
2024/01/28 07:18:03;;;;;;;25.50;16.87;;;2.00;99.90;;;;;;4970312;28;20556;-55
2024/01/28 07:20:29;;;;;;;27.73;19.20;;;2.00;99.90;;;;;;4980210;28;20189;-49
2024/01/28 07:22:54;;;;;;;148.50;77.97;;;2.00;99.90;;;;;;4988961;28;20181;-50
2024/01/28 07:25:20;;;;;;;159.07;80.90;;;2.00;99.90;;;;;;4985747;28;20207;-53
2024/01/28 07:27:46;;;;;;;136.33;76.93;;;2.00;99.90;;;;;;4973307;28;20300;-53
2024/01/28 07:30:12;;;;;;;12.03;9.20;;;2.00;99.90;;;;;;4970722;28;20214;-51
2024/01/28 07:32:38;;;;;;;22.13;18.13;;;2.10;99.90;;;;;;4971345;28;20200;-48
2024/01/28 07:35:05;;;;;;;11.00;8.60;;;2.00;99.90;;;;;;4973908;28;20222;-53
2024/01/28 07:37:30;;;;;;;10.53;6.80;;;2.10;99.90;;;;;;4973711;28;20666;-50
2024/01/28 07:39:56;;;;;;;9.37;6.37;;;2.10;99.90;;;;;;4973922;28;20173;-52
2024/01/28 07:42:22;;;;;;;12.57;6.70;;;2.20;99.90;;;;;;4973846;28;20181;-53
2024/01/28 07:44:47;;;;;;;7.80;5.20;;;2.20;99.90;;;;;;4989093;28;20182;-53
2024/01/28 07:47:13;;;;;;;8.53;6.30;;;2.20;99.90;;;;;;4992519;28;20174;-53
2024/01/28 07:49:38;;;;;;;8.63;5.60;;;2.20;99.90;;;;;;4985744;28;20220;-52
2024/01/28 07:52:04;;;;;;;9.33;5.60;;;2.20;99.90;;;;;;4973829;28;20177;-49
2024/01/28 07:54:30;;;;;;;6.63;4.80;;;2.30;99.90;;;;;;4975710;28;20527;-52
2024/01/28 07:56:57;;;;;;;7.17;4.80;;;2.20;99.90;;;;;;4975681;28;20544;-53
2024/01/28 07:59:23;;;;;;;6.10;4.47;;;2.30;99.90;;;;;;4977409;28;20277;-53
2024/01/28 08:01:49;;;;;;;7.43;4.53;;;2.30;99.90;;;;;;4977392;28;20602;-51
2024/01/28 08:04:14;;;;;;;9.00;5.20;;;2.30;99.90;;;;;;4977288;28;20188;-54
2024/01/28 08:06:40;;;;;;;7.53;5.50;;;2.40;99.90;;;;;;4977453;28;20276;-52
2024/01/28 08:09:06;;;;;;;8.20;5.30;;;2.40;99.90;;;;;;4977255;28;20214;-53
2024/01/28 08:11:32;;;;;;;8.60;4.70;;;2.40;99.90;;;;;;4977293;28;20293;-54
2024/01/28 08:13:58;;;;;;;7.57;4.53;;;2.40;99.90;;;;;;4977405;28;20181;-54
2024/01/28 08:16:23;;;;;;;7.07;4.37;;;2.40;99.90;;;;;;4977118;28;20185;-52
2024/01/28 08:18:49;;;;;;;6.07;4.30;;;2.40;99.90;;;;;;4977068;28;20185;-54
2024/01/28 08:21:15;;;;;;;7.33;4.67;;;2.40;99.90;;;;;;4977166;28;20225;-53
2024/01/28 08:23:40;;;;;;;6.67;4.40;;;2.60;99.90;;;;;;4981729;28;20296;-53
2024/01/28 08:26:08;;;;;;;7.68;5.43;;;2.60;99.90;;;;;;4996333;28;20264;-54
2024/01/28 08:28:34;;;;;;;8.25;4.82;;;2.70;99.90;;;;;;4996248;28;20217;-51
2024/01/28 08:31:00;;;;;;;8.67;5.07;;;2.60;99.90;;;;;;4996148;28;20181;-54
2024/01/28 08:33:25;;;;;;;10.73;6.13;;;2.70;99.90;;;;;;4996208;28;20523;-53
2024/01/28 08:35:51;;;;;;;10.57;6.03;;;2.80;99.90;;;;;;4996319;28;20554;-54
2024/01/28 08:38:16;;;;;;;15.57;8.77;;;2.90;99.90;;;;;;4996326;28;20185;-53
2024/01/28 08:40:42;;;;;;;14.98;9.40;;;2.90;99.90;;;;;;4996211;28;20244;-53
2024/01/28 08:43:08;;;;;;;11.87;7.23;;;3.00;99.90;;;;;;4996149;28;20239;-53
2024/01/28 08:45:36;;;;;;;9.10;6.40;;;2.90;99.90;;;;;;4996009;28;20196;-53
2024/01/28 08:48:02;;;;;;;7.40;4.93;;;3.00;99.90;;;;;;4995705;28;20224;-51
2024/01/28 08:50:27;;;;;;;7.83;5.40;;;3.10;99.90;;;;;;4996149;28;20518;-54
2024/01/28 08:52:53;;;;;;;8.70;5.80;;;3.20;99.90;;;;;;4994451;28;20188;-53
2024/01/28 08:55:18;;;;;;;8.70;5.00;;;3.30;99.90;;;;;;4996029;28;20187;-54
2024/01/28 08:57:44;;;;;;;7.18;4.63;;;3.40;99.90;;;;;;4994596;28;20181;-54
2024/01/28 09:00:13;;;;;;;7.67;4.80;;;3.40;99.90;;;;;;4995652;28;20187;-51
2024/01/28 09:02:39;;;;;;;5.97;3.80;;;3.40;99.90;;;;;;4995503;28;20584;-51
2024/01/28 09:05:07;;;;;;;6.20;4.32;;;3.50;99.90;;;;;;4993724;28;20185;-53
2024/01/28 09:07:33;;;;;;;8.87;5.63;;;3.60;99.90;;;;;;4995396;28;20271;-52
2024/01/28 09:10:00;;;;;;;5.00;4.17;;;3.60;99.90;;;;;;4995599;28;20177;-53
2024/01/28 09:12:25;;;;;;;6.85;4.45;;;3.70;99.90;;;;;;4995577;28;20591;-58
2024/01/28 09:14:54;;;;;;;6.50;4.23;;;3.70;99.90;;;;;;4995613;28;20219;-51
2024/01/28 09:17:19;;;;;;;9.05;4.28;;;3.80;99.90;;;;;;4995619;28;20180;-55
2024/01/28 09:19:45;;;;;;;16.25;9.93;;;3.90;99.90;;;;;;4995496;28;20184;-51
2024/01/28 09:22:11;;;;;;;12.18;7.82;;;3.90;99.90;;;;;;4995422;28;20181;-52
2024/01/28 09:24:37;;;;;;;30.17;18.98;;;3.90;99.90;;;;;;4995334;28;20704;-52
2024/01/28 09:27:02;;;;;;;9.90;6.35;;;4.10;99.90;;;;;;4995321;28;20176;-52
2024/01/28 09:29:30;;;;;;;12.35;7.75;;;4.10;99.90;;;;;;4995195;28;20563;-52
2024/01/28 09:31:59;;;;;;;8.25;5.05;;;4.10;99.90;;;;;;4995403;28;20192;-53
2024/01/28 09:34:25;;;;;;;7.55;5.40;;;4.20;99.90;;;;;;4995185;28;20207;-53
2024/01/28 09:36:50;;;;;;;11.10;6.10;;;4.30;99.90;;;;;;4995237;28;20235;-51
2024/01/28 09:39:17;;;;;;;13.07;8.25;;;4.40;99.90;;;;;;4995134;28;20195;-53
2024/01/28 09:41:55;;;;;;;7.85;5.28;;;4.40;99.90;;;;;;4995176;28;20177;-50
2024/01/28 09:44:20;;;;;;;9.70;6.88;;;4.40;99.90;;;;;;4995003;28;20176;-51
2024/01/28 09:46:47;;;;;;;7.93;4.65;;;4.50;99.90;;;;;;4995269;28;20181;-52
2024/01/28 09:49:14;;;;;;;6.25;4.38;;;4.60;99.90;;;;;;4994842;28;20223;-53
2024/01/28 09:51:42;;;;;;;6.00;3.95;;;4.60;99.90;;;;;;4980088;28;20222;-57
2024/01/28 09:54:09;;;;;;;7.45;5.07;;;4.60;99.90;;;;;;4975453;28;20198;-51
2024/01/28 09:56:36;;;;;;;10.75;6.05;;;4.70;99.90;;;;;;4975292;28;20174;-54
2024/01/28 09:59:05;;;;;;;7.90;5.47;;;4.80;99.90;;;;;;4975213;28;20187;-53
2024/01/28 10:01:31;;;;;;;8.55;5.68;;;4.80;99.90;;;;;;4974686;28;20228;-53
2024/01/28 10:04:00;;;;;;;8.27;5.30;;;4.90;99.90;;;;;;4973543;28;20184;-50
2024/01/28 10:06:26;;;;;;;7.07;4.18;;;5.00;99.90;;;;;;4974129;28;20812;-53
2024/01/28 10:08:52;;;;;;;6.70;3.90;;;5.10;99.90;;;;;;4974471;28;20205;-51
2024/01/28 10:11:18;;;;;;;8.10;4.47;;;5.10;99.90;;;;;;4975032;28;20177;-52
2024/01/28 10:13:45;;;;;;;7.75;3.78;;;5.30;99.90;;;;;;4975302;28;20264;-53
2024/01/28 10:16:11;;;;;;;4.85;3.60;;;5.50;99.90;;;;;;4974970;28;20179;-51
2024/01/28 10:18:36;;;;;;;7.38;4.55;;;5.60;99.90;;;;;;4975022;28;20188;-49
2024/01/28 10:21:02;;;;;;;4.82;3.92;;;5.60;99.90;;;;;;4975012;28;20174;-55
2024/01/28 10:23:28;;;;;;;7.88;4.18;;;5.70;99.90;;;;;;4974912;28;20185;-53
2024/01/28 10:26:00;;;;;;;5.32;3.40;;;5.70;99.90;;;;;;4974653;28;20181;-52
2024/01/28 10:28:29;;;;;;;5.88;3.92;;;5.70;99.90;;;;;;4974945;28;20229;-52
2024/01/28 10:30:55;;;;;;;7.80;4.97;;;5.80;99.90;;;;;;4974869;28;20181;-53
2024/01/28 10:33:21;;;;;;;5.85;4.45;;;5.90;99.90;;;;;;4974705;28;20231;-52
2024/01/28 10:35:47;;;;;;;5.40;4.10;;;6.00;99.90;;;;;;4974778;28;20174;-52
2024/01/28 10:38:22;;;;;;;6.18;4.32;;;6.00;99.90;;;;;;4974666;28;20210;-59
2024/01/28 10:40:50;;;;;;;5.40;3.83;;;6.20;99.90;;;;;;4974734;28;20300;-57
2024/01/28 10:43:20;;;;;;;5.85;3.65;;;6.20;99.90;;;;;;4974697;28;20170;-58
2024/01/28 10:45:50;;;;;;;19.75;11.43;;;6.40;99.90;;;;;;4974559;28;20174;-58
2024/01/28 10:48:17;;;;;;;7.85;5.75;;;6.50;99.90;;;;;;4974687;28;20300;-58
2024/01/28 10:50:43;;;;;;;4.68;3.92;;;6.50;99.90;;;;;;4974497;28;20248;-58
2024/01/28 10:53:12;;;;;;;5.72;4.18;;;6.60;99.90;;;;;;4974384;28;20272;-58
2024/01/28 10:55:39;;;;;;;6.75;4.13;;;6.60;99.90;;;;;;4974646;28;20172;-58
2024/01/28 10:58:05;;;;;;;6.30;3.72;;;6.70;99.90;;;;;;4974636;28;20243;-58
2024/01/28 11:00:31;;;;;;;6.75;3.72;;;6.70;99.90;;;;;;4974333;28;20177;-55
2024/01/28 11:02:59;;;;;;;6.70;3.65;;;6.80;99.90;;;;;;4974480;28;20178;-58
2024/01/28 11:05:28;;;;;;;5.82;3.35;;;6.80;99.90;;;;;;4974276;28;20244;-57
2024/01/28 11:07:59;;;;;;;5.38;3.42;;;6.80;99.90;;;;;;4974387;28;20265;-58
2024/01/28 11:10:28;;;;;;;5.70;3.47;;;6.90;99.90;;;;;;4974391;28;20180;-58
2024/01/28 11:12:56;;;;;;;4.93;3.42;;;7.00;99.90;;;;;;4974265;28;20173;-58
2024/01/28 11:15:22;;;;;;;13.93;5.15;;;7.00;99.90;;;;;;4974375;28;20276;-58
2024/01/28 11:17:48;;;;;;;11.90;4.75;;;7.10;99.90;;;;;;4974337;28;20185;-58
2024/01/28 11:20:17;;;;;;;9.52;4.20;;;7.10;99.90;;;;;;4974149;28;20512;-58
2024/01/28 11:22:54;;;;;;;6.93;4.38;;;7.20;99.90;;;;;;4974199;28;20275;-57
2024/01/28 11:25:26;;;;;;;6.15;3.78;;;7.30;99.90;;;;;;4974308;28;20176;-58
2024/01/28 11:28:01;;;;;;;4.95;3.78;;;7.40;99.90;;;;;;4974100;28;20212;-58
2024/01/28 11:30:28;;;;;;;5.93;4.00;;;7.40;99.90;;;;;;4977529;28;20176;-58
2024/01/28 11:33:07;;;;;;;7.97;4.10;;;7.50;99.90;;;;;;4977947;28;20177;-58
2024/01/28 11:35:33;;;;;;;7.53;4.20;;;7.50;99.90;;;;;;4978128;28;20174;-58
2024/01/28 11:38:05;;;;;;;5.45;3.88;;;7.50;99.90;;;;;;4978021;28;20181;-58
2024/01/28 11:40:38;;;;;;;6.72;3.72;;;7.50;99.90;;;;;;4977908;28;20236;-58
2024/01/28 11:43:06;;;;;;;6.25;4.00;;;7.60;99.90;;;;;;4977937;28;20177;-58
2024/01/28 11:45:32;;;;;;;6.95;4.03;;;7.60;99.90;;;;;;4977995;28;20177;-57
2024/01/28 11:48:04;;;;;;;6.07;4.00;;;7.70;99.90;;;;;;4977729;28;20558;-57
2024/01/28 11:50:30;;;;;;;6.07;4.25;;;7.80;99.90;;;;;;4977903;28;20264;-58
2024/01/28 11:52:55;;;;;;;5.03;3.67;;;7.80;99.90;;;;;;4977592;28;20555;-58
2024/01/28 11:55:21;;;;;;;5.07;3.92;;;7.80;99.90;;;;;;4977785;28;20706;-58
2024/01/28 11:57:49;;;;;;;4.15;3.60;;;7.90;99.90;;;;;;4977453;28;20220;-58
2024/01/28 12:00:15;;;;;;;5.78;4.25;;;8.00;99.90;;;;;;4977560;28;20177;-57
2024/01/28 12:02:42;;;;;;;6.05;3.78;;;8.10;99.90;;;;;;4977649;28;20177;-58
2024/01/28 12:05:10;;;;;;;5.88;3.95;;;8.20;99.90;;;;;;4977587;28;20185;-58
2024/01/28 12:07:39;;;;;;;7.55;4.05;;;8.30;99.90;;;;;;4977361;28;20197;-58
2024/01/28 12:10:12;;;;;;;5.50;4.95;;;8.30;99.90;;;;;;4977352;28;20171;-57
2024/01/28 12:12:40;;;;;;;8.55;4.93;;;8.40;99.90;;;;;;4977537;28;20517;-58
2024/01/28 12:15:07;;;;;;;10.52;5.45;;;8.50;99.90;;;;;;4977449;28;20182;-58
2024/01/28 12:17:44;;;;;;;6.40;4.35;;;8.60;99.90;;;;;;4977306;28;20188;-57
2024/01/28 12:20:23;;;;;;;6.13;4.57;;;8.70;99.90;;;;;;4977216;28;20186;-58
2024/01/28 12:22:49;;;;;;;7.47;4.30;;;8.80;99.90;;;;;;4977128;28;20170;-58
2024/01/28 12:25:21;;;;;;;7.55;4.93;;;8.80;99.90;;;;;;4977352;28;20178;-58
2024/01/28 12:27:48;;;;;;;6.95;4.70;;;8.90;99.90;;;;;;4977155;28;20694;-57
2024/01/28 12:30:14;;;;;;;5.55;4.43;;;8.90;99.90;;;;;;4977062;28;20170;-57
2024/01/28 12:32:39;;;;;;;7.38;4.78;;;9.00;99.90;;;;;;4977104;28;20188;-57
2024/01/28 12:35:07;;;;;;;6.60;3.58;;;9.10;99.90;;;;;;4976773;28;20185;-58
2024/01/28 12:37:38;;;;;;;5.28;4.20;;;9.20;99.90;;;;;;4977250;28;20185;-58
2024/01/28 12:40:05;;;;;;;5.45;3.95;;;9.30;99.90;;;;;;4976790;28;20261;-58
2024/01/28 12:42:33;;;;;;;5.75;3.97;;;9.40;99.90;;;;;;4976745;28;20185;-58
2024/01/28 12:44:58;;;;;;;7.90;5.55;;;9.50;99.90;;;;;;4976859;28;20182;-58
2024/01/28 12:47:24;;;;;;;4.63;3.80;;;9.50;99.90;;;;;;4976698;28;20189;-58